Terminal Aerodrome Forecast
Issued by NWS

Home | Current Version | Previous Version | Text Only | Print | Product List | Glossary On
Versions: 1 2 3 4 5 6 7 8 9 10 11 12 13 14 15 16 17
000
FTUS45 KGJT 251744
TAFEGE
TAF
KEGE 251744Z 2518/2618 00000KT P6SM SKC
     FM252000 25010G18KT P6SM SKC
     FM260100 11004KT P6SM SCT250
     FM260800 00000KT P6SM FEW100 BKN150
     FM261700 25010G20KT P6SM SCT080 BKN120=

USA.gov is the U.S. government's official web portal to all federal, state and local government web resources and services.